Decoded Metar for SARE (RESISTENCIA in ARGENTINA) (IATA:RES) | Meteo·Mobile Aviation Weather
aviador You're here:

SARE Decoded Metar

RESISTENCIA in ARGENTINA
Report Time2019-02-17 05:00:00
UTC Time2019-02-17 05:21:11
Flight Rules vfr VFR
Wind180° at 03 kt
W.Decomp.*RWY 21: 2.8 kt HW 1 kt LCW
W.Rank180° ranks 4
Current wind is below 180° avg. (5.3)
Visibility9999 m
Phenomena:N/A
Clouds:N/A
Expected CloudBase > 400 ft AGL from Temp-Dew spread
CeilingNone
Temp22°C (ISA +7)
Dew Point21°C (94% RH)
QNH1011 hPa
Density Alt1,421 ft
Elevation171 ft
Report Wrong Elevation
Raw Report
METAR SARE 170500Z 18003KT CAVOK 22/21 Q1011=

Extra information for SARE:More info

Metar Taf Metar & Taf Last 4 Metars F.Rules Stats Wind Profile Meteogram Temp Stats Airport Information Weather charts Add Link Nearby VenuesMetar ALERT Operation Metar Decoded Social comments